createdAt,value
2018-06-28T00:01:41.085Z,15.40
2018-06-28T00:04:09.648Z,15.40
2018-06-28T00:06:38.229Z,15.40
2018-06-28T00:09:08.751Z,15.40
2018-06-28T00:11:37.601Z,15.50
2018-06-28T00:14:06.492Z,15.40
2018-06-28T00:16:35.950Z,15.30
2018-06-28T00:19:05.078Z,15.30
2018-06-28T00:24:02.602Z,15.50
2018-06-28T00:26:31.544Z,15.90
2018-06-28T00:29:00.438Z,16.00
2018-06-28T00:33:57.897Z,15.50
2018-06-28T00:38:55.388Z,15.30
2018-06-28T00:43:52.454Z,15.40
2018-06-28T00:46:20.971Z,15.30
2018-06-28T00:48:49.558Z,15.30
2018-06-28T00:51:18.116Z,15.20
2018-06-28T00:53:46.643Z,15.20
2018-06-28T00:56:15.620Z,15.30
2018-06-28T00:58:44.498Z,15.30
2018-06-28T01:01:14.598Z,15.20
2018-06-28T01:03:43.633Z,15.10
2018-06-28T01:06:12.475Z,15.10
2018-06-28T01:08:41.400Z,15.00
2018-06-28T01:11:10.363Z,14.80
2018-06-28T01:13:39.265Z,14.80
2018-06-28T01:16:08.176Z,14.80
2018-06-28T01:18:37.067Z,14.80
2018-06-28T01:21:05.996Z,14.90
2018-06-28T01:23:34.905Z,14.90
2018-06-28T01:26:03.766Z,15.00
2018-06-28T01:28:32.636Z,15.00
2018-06-28T01:31:01.536Z,15.00
2018-06-28T01:33:30.416Z,14.90
2018-06-28T01:35:59.263Z,15.00
2018-06-28T01:38:28.126Z,15.00
2018-06-28T01:43:41.460Z,14.90
2018-06-28T01:46:10.309Z,14.90
2018-06-28T01:48:38.926Z,14.80
2018-06-28T01:51:07.636Z,14.80
2018-06-28T01:53:36.191Z,14.80
2018-06-28T01:56:04.957Z,14.80
2018-06-28T01:58:33.535Z,14.90
2018-06-28T02:01:02.214Z,14.90
2018-06-28T02:03:30.790Z,14.90
2018-06-28T02:05:59.366Z,14.80
2018-06-28T02:08:27.880Z,14.70
2018-06-28T02:10:56.629Z,14.50
2018-06-28T02:13:25.488Z,14.50
2018-06-28T02:18:22.972Z,14.40
2018-06-28T02:20:51.608Z,14.20
2018-06-28T02:23:20.139Z,14.10
2018-06-28T02:25:48.695Z,14.00
2018-06-28T02:28:17.238Z,13.90
2018-06-28T02:30:46.009Z,13.90
2018-06-28T02:33:14.873Z,14.00
2018-06-28T02:38:12.348Z,13.80
2018-06-28T02:43:09.402Z,13.80
2018-06-28T02:45:37.954Z,13.70
2018-06-28T02:48:06.475Z,13.70
2018-06-28T02:50:35.258Z,13.70
2018-06-28T02:55:32.767Z,13.50
2018-06-28T02:58:01.631Z,13.50
2018-06-28T03:00:30.269Z,13.50
2018-06-28T03:02:58.843Z,13.40
2018-06-28T03:05:27.436Z,13.30
2018-06-28T03:07:55.949Z,13.30
2018-06-28T03:12:53.303Z,13.10
2018-06-28T03:15:22.293Z,13.00
2018-06-28T03:17:51.204Z,13.10
2018-06-28T03:20:20.124Z,13.10
2018-06-28T03:22:49.003Z,13.20
2018-06-28T03:25:17.950Z,13.30
2018-06-28T03:27:46.916Z,13.70
2018-06-28T03:30:15.783Z,13.80
2018-06-28T03:32:44.729Z,13.40
2018-06-28T03:35:13.601Z,13.40
2018-06-28T03:37:42.590Z,13.60
2018-06-28T03:40:11.259Z,13.50
2018-06-28T03:42:39.811Z,13.40
2018-06-28T03:45:08.409Z,13.20
2018-06-28T03:47:36.943Z,13.10
2018-06-28T03:50:05.609Z,13.00
2018-06-28T03:52:34.179Z,12.90
2018-06-28T03:55:02.796Z,12.80
2018-06-28T03:57:31.527Z,12.80
2018-06-28T04:00:00.263Z,12.90
2018-06-28T04:02:29.254Z,12.80
2018-06-28T04:04:58.124Z,12.80
2018-06-28T04:07:26.978Z,12.80
2018-06-28T04:09:55.826Z,12.90
2018-06-28T04:12:24.664Z,13.20
2018-06-28T04:14:53.561Z,13.20
2018-06-28T04:17:22.416Z,13.40
2018-06-28T04:22:24.989Z,13.70
2018-06-28T04:24:53.849Z,13.70
2018-06-28T04:27:22.811Z,13.50
2018-06-28T04:32:19.988Z,13.40
2018-06-28T04:34:48.516Z,13.50
2018-06-28T04:37:17.084Z,13.70
2018-06-28T04:39:45.827Z,13.80
2018-06-28T04:42:14.768Z,14.00
2018-06-28T04:44:43.616Z,14.10
2018-06-28T04:47:12.446Z,14.40
2018-06-28T04:49:41.321Z,14.90
2018-06-28T04:52:10.168Z,15.30
2018-06-28T04:54:39.006Z,15.60
2018-06-28T04:57:08.019Z,15.90
2018-06-28T04:59:36.936Z,16.00
2018-06-28T05:04:34.725Z,16.20
2018-06-28T05:07:03.758Z,16.40
2018-06-28T05:09:32.611Z,16.40
2018-06-28T05:12:01.522Z,16.70
2018-06-28T05:14:30.633Z,16.90
2018-06-28T05:16:59.516Z,17.10
2018-06-28T05:19:28.448Z,17.40
2018-06-28T05:21:57.474Z,17.50
2018-06-28T05:24:26.534Z,17.60
2018-06-28T05:26:55.450Z,17.50
2018-06-28T05:29:24.112Z,17.50
2018-06-28T05:31:53.216Z,17.80
2018-06-28T05:34:21.783Z,17.90
2018-06-28T05:36:50.383Z,18.00
2018-06-28T05:39:18.957Z,17.90
2018-06-28T05:41:47.559Z,18.00
2018-06-28T05:44:16.108Z,18.00
2018-06-28T05:46:44.654Z,18.10
2018-06-28T05:49:13.518Z,18.30
2018-06-28T05:51:42.447Z,18.60
2018-06-28T05:54:11.390Z,19.00
2018-06-28T05:56:40.271Z,19.10
2018-06-28T05:59:08.948Z,19.30
2018-06-28T06:04:06.044Z,19.90
2018-06-28T06:06:34.671Z,20.40
2018-06-28T06:09:03.956Z,20.80
2018-06-28T06:11:32.544Z,20.80
2018-06-28T06:14:01.219Z,20.90
2018-06-28T06:16:29.798Z,21.20
2018-06-28T06:18:58.602Z,21.40
2018-06-28T06:21:27.571Z,21.20
2018-06-28T06:23:56.410Z,21.40
2018-06-28T06:26:25.312Z,21.90
2018-06-28T06:31:22.468Z,22.60
2018-06-28T06:33:51.068Z,22.60
2018-06-28T06:36:19.701Z,22.70
2018-06-28T06:38:48.256Z,23.30
2018-06-28T06:41:16.849Z,23.50
2018-06-28T06:43:45.423Z,23.80
2018-06-28T06:46:14.004Z,23.90
2018-06-28T06:48:42.801Z,23.90
2018-06-28T06:53:39.859Z,24.60
2018-06-28T06:56:08.516Z,24.30
2018-06-28T06:58:37.476Z,24.30
2018-06-28T07:01:06.451Z,24.40
2018-06-28T07:03:35.386Z,24.30
2018-06-28T07:06:04.561Z,24.70
2018-06-28T07:11:01.641Z,24.70
2018-06-28T07:13:30.238Z,24.70
2018-06-28T07:15:59.057Z,24.90
2018-06-28T07:18:27.963Z,25.10
2018-06-28T07:20:56.841Z,25.50
2018-06-28T07:23:25.444Z,25.30
2018-06-28T07:25:54.246Z,25.40
2018-06-28T07:28:22.823Z,25.50
2018-06-28T07:30:51.512Z,25.60
2018-06-28T07:33:20.296Z,25.70
2018-06-28T07:35:49.183Z,25.80
2018-06-28T07:38:18.026Z,25.50
2018-06-28T07:40:46.909Z,26.00
2018-06-28T07:43:15.769Z,26.00
2018-06-28T07:45:44.621Z,26.00
2018-06-28T07:48:13.494Z,25.60
2018-06-28T07:50:42.427Z,26.00
2018-06-28T07:53:11.507Z,25.90
2018-06-28T07:55:40.030Z,25.30
2018-06-28T08:00:36.977Z,25.60
2018-06-28T08:03:05.592Z,25.70
2018-06-28T08:05:34.212Z,25.50
2018-06-28T08:08:02.827Z,25.50
2018-06-28T08:10:31.386Z,26.10
2018-06-28T08:12:59.941Z,26.30
2018-06-28T08:15:28.542Z,26.40
2018-06-28T08:17:57.116Z,26.50
2018-06-28T08:20:26.476Z,27.00
2018-06-28T08:22:55.048Z,27.20
2018-06-28T08:25:23.616Z,26.80
2018-06-28T08:27:52.191Z,26.80
2018-06-28T08:30:20.729Z,26.70
2018-06-28T08:32:49.516Z,26.80
2018-06-28T08:35:18.484Z,26.70
2018-06-28T08:37:47.448Z,26.90
2018-06-28T08:40:17.681Z,27.00
2018-06-28T08:42:46.599Z,27.00
2018-06-28T08:45:15.583Z,27.60
2018-06-28T08:47:44.465Z,27.60
2018-06-28T08:50:13.336Z,27.80
2018-06-28T08:52:42.019Z,27.90
2018-06-28T08:55:10.641Z,27.80
2018-06-28T08:57:39.351Z,27.90
2018-06-28T09:00:09.086Z,28.00
2018-06-28T09:02:37.968Z,27.70
2018-06-28T09:05:06.846Z,28.20
2018-06-28T09:07:36.076Z,28.20
2018-06-28T09:10:05.084Z,28.40
2018-06-28T09:12:33.824Z,28.20
2018-06-28T09:15:02.383Z,28.20
2018-06-28T09:17:30.968Z,28.50
2018-06-28T09:19:59.504Z,28.20
2018-06-28T09:22:28.198Z,28.30
2018-06-28T09:24:56.723Z,28.50
2018-06-28T09:27:25.281Z,28.70
2018-06-28T09:29:53.873Z,28.90
2018-06-28T09:32:22.669Z,29.40
2018-06-28T09:34:51.581Z,29.40
2018-06-28T09:37:20.477Z,29.40
2018-06-28T09:39:49.384Z,29.40
2018-06-28T09:42:18.089Z,29.60
2018-06-28T09:44:46.763Z,29.30
2018-06-28T09:47:15.378Z,29.00
2018-06-28T09:49:43.961Z,28.80
2018-06-28T09:52:12.809Z,28.90
2018-06-28T09:54:41.771Z,28.80
2018-06-28T09:57:10.644Z,29.10
2018-06-28T09:59:39.726Z,29.20
2018-06-28T10:02:08.441Z,28.80
2018-06-28T10:04:37.143Z,29.10
2018-06-28T10:07:06.374Z,29.70
2018-06-28T10:09:35.504Z,29.50
2018-06-28T10:12:04.381Z,29.60
2018-06-28T10:14:33.323Z,29.60
2018-06-28T10:17:02.312Z,29.60
2018-06-28T10:19:31.262Z,29.40
2018-06-28T10:22:00.114Z,29.80
2018-06-28T10:24:28.956Z,29.70
2018-06-28T10:26:58.703Z,29.80
2018-06-28T10:29:27.561Z,29.60
2018-06-28T10:31:56.369Z,29.80
2018-06-28T10:34:25.271Z,29.90
2018-06-28T10:36:54.151Z,30.20
2018-06-28T10:39:23.140Z,30.40
2018-06-28T10:41:52.182Z,30.70
2018-06-28T10:44:21.239Z,30.80
2018-06-28T10:46:50.229Z,30.90
2018-06-28T10:49:19.110Z,31.30
2018-06-28T10:51:48.045Z,31.00
2018-06-28T10:54:16.894Z,30.40
2018-06-28T10:56:46.421Z,29.40
2018-06-28T10:59:15.089Z,29.60
2018-06-28T11:01:43.647Z,30.10
2018-06-28T11:06:40.893Z,30.20
2018-06-28T11:09:11.548Z,30.40
2018-06-28T11:11:40.798Z,30.30
2018-06-28T11:14:09.669Z,29.50
2018-06-28T11:16:38.713Z,29.80
2018-06-28T11:19:07.372Z,30.20
2018-06-28T11:21:35.962Z,30.90
2018-06-28T11:24:04.727Z,31.30
2018-06-28T11:26:33.347Z,31.40
2018-06-28T11:29:01.966Z,31.00
2018-06-28T11:31:30.532Z,31.70
2018-06-28T11:33:59.125Z,31.50
2018-06-28T11:36:27.709Z,31.20
2018-06-28T11:38:56.294Z,31.50
2018-06-28T11:41:24.891Z,31.40
2018-06-28T11:43:53.606Z,31.70
2018-06-28T11:46:22.192Z,31.90
2018-06-28T11:48:50.869Z,31.90
2018-06-28T11:51:19.639Z,32.10
2018-06-28T11:53:48.267Z,32.20
2018-06-28T11:56:17.028Z,31.60
2018-06-28T11:58:45.873Z,31.80
2018-06-28T12:01:14.853Z,32.00
2018-06-28T12:03:43.684Z,31.90
2018-06-28T12:06:12.347Z,31.80
2018-06-28T12:08:40.951Z,32.00
2018-06-28T12:11:09.886Z,31.90
2018-06-28T12:13:38.479Z,30.80
2018-06-28T12:16:07.116Z,29.70
2018-06-28T12:18:35.776Z,28.80
2018-06-28T12:21:04.367Z,28.10
2018-06-28T12:23:34.704Z,27.50
2018-06-28T12:26:03.442Z,27.70
2018-06-28T12:28:32.512Z,28.80
2018-06-28T12:31:01.585Z,30.10
2018-06-28T12:33:30.636Z,30.90
2018-06-28T12:35:59.561Z,31.60
2018-06-28T12:38:29.916Z,31.80
2018-06-28T12:40:58.534Z,30.80
2018-06-28T12:43:29.245Z,31.30
2018-06-28T12:45:59.042Z,31.30
2018-06-28T12:48:27.765Z,31.30
2018-06-28T12:50:56.321Z,32.00
2018-06-28T12:53:24.949Z,32.40
2018-06-28T12:56:29.871Z,31.60
2018-06-28T12:59:01.302Z,31.70
2018-06-28T13:01:30.556Z,32.20
2018-06-28T13:03:59.439Z,32.30
2018-06-28T13:06:28.378Z,32.60
2018-06-28T13:08:57.946Z,31.50
2018-06-28T13:11:27.176Z,30.70
2018-06-28T13:13:56.053Z,30.40
2018-06-28T13:16:26.973Z,30.20
2018-06-28T13:18:55.881Z,29.90
2018-06-28T13:21:24.707Z,29.70
2018-06-28T13:23:53.600Z,29.40
2018-06-28T13:26:22.588Z,29.60
2018-06-28T13:28:51.464Z,30.40
2018-06-28T13:31:20.404Z,31.50
2018-06-28T13:33:49.359Z,32.30
2018-06-28T13:36:18.157Z,32.50
2018-06-28T13:38:47.292Z,32.40
2018-06-28T13:41:16.382Z,32.50
2018-06-28T13:43:45.116Z,32.70
2018-06-28T13:46:14.032Z,31.90
2018-06-28T13:48:42.977Z,31.20
2018-06-28T13:51:12.784Z,31.00
2018-06-28T13:53:41.775Z,31.20
2018-06-28T13:56:10.847Z,31.50
2018-06-28T13:58:39.546Z,31.90
2018-06-28T14:01:08.244Z,31.70
2018-06-28T14:03:37.653Z,31.10
2018-06-28T14:06:06.995Z,31.50
2018-06-28T14:08:35.801Z,31.50
2018-06-28T14:11:04.721Z,31.30
2018-06-28T14:13:33.626Z,31.50
2018-06-28T14:16:02.514Z,31.70
2018-06-28T14:18:31.439Z,31.30
2018-06-28T14:21:00.423Z,31.20
2018-06-28T14:23:29.433Z,30.70
2018-06-28T14:25:58.364Z,30.40
2018-06-28T14:28:27.371Z,30.70
2018-06-28T14:33:24.916Z,31.60
2018-06-28T14:35:53.748Z,31.90
2018-06-28T14:38:23.606Z,32.10
2018-06-28T14:40:52.511Z,32.00
2018-06-28T14:43:22.286Z,31.50
2018-06-28T14:45:51.184Z,31.20
2018-06-28T14:48:20.096Z,30.60
2018-06-28T14:50:48.974Z,30.00
2018-06-28T14:53:17.821Z,29.30
2018-06-28T14:55:46.778Z,28.90
2018-06-28T14:58:15.630Z,28.80
2018-06-28T15:00:44.304Z,28.60
2018-06-28T15:03:12.915Z,28.60
2018-06-28T15:05:41.512Z,28.70
2018-06-28T15:08:10.137Z,28.60
2018-06-28T15:10:38.876Z,28.40
2018-06-28T15:13:08.938Z,28.30
2018-06-28T15:15:37.484Z,28.40
2018-06-28T15:18:06.087Z,28.30
2018-06-28T15:20:34.859Z,28.10
2018-06-28T15:23:03.810Z,28.00
2018-06-28T15:25:32.845Z,27.90
2018-06-28T15:28:01.874Z,27.80
2018-06-28T15:30:31.534Z,27.70
2018-06-28T15:33:00.506Z,27.50
2018-06-28T15:35:29.037Z,27.50
2018-06-28T15:37:58.404Z,27.40
2018-06-28T15:40:27.084Z,27.40
2018-06-28T15:42:55.863Z,27.60
2018-06-28T15:45:24.864Z,27.50
2018-06-28T15:47:53.749Z,27.20
2018-06-28T15:50:22.636Z,27.20
2018-06-28T15:52:51.536Z,27.20
2018-06-28T15:55:20.366Z,27.20
2018-06-28T15:57:49.248Z,27.20
2018-06-28T16:00:18.142Z,27.00
2018-06-28T16:02:47.047Z,26.80
2018-06-28T16:05:15.941Z,26.80
2018-06-28T16:07:44.838Z,26.50
2018-06-28T16:10:13.703Z,26.50
2018-06-28T16:12:42.573Z,26.50
2018-06-28T16:15:11.443Z,26.50
2018-06-28T16:17:44.531Z,26.40
2018-06-28T16:20:13.607Z,26.50
2018-06-28T16:22:42.599Z,26.40
2018-06-28T16:25:11.504Z,26.30
2018-06-28T16:27:40.331Z,26.20
2018-06-28T16:30:09.207Z,26.10
2018-06-28T16:32:37.936Z,26.00
2018-06-28T16:35:06.556Z,26.00
2018-06-28T16:37:35.235Z,25.90
2018-06-28T16:40:03.941Z,25.90
2018-06-28T16:42:32.597Z,25.80
2018-06-28T16:45:01.230Z,25.70
2018-06-28T16:47:29.827Z,25.60
2018-06-28T16:49:58.445Z,25.50
2018-06-28T16:52:27.371Z,25.40
2018-06-28T16:54:56.296Z,25.20
2018-06-28T16:57:25.139Z,25.20
2018-06-28T16:59:54.124Z,25.10
2018-06-28T17:02:22.818Z,25.20
2018-06-28T17:04:51.414Z,25.20
2018-06-28T17:07:20.616Z,25.00
2018-06-28T17:09:49.481Z,24.90
2018-06-28T17:12:19.147Z,24.90
2018-06-28T17:14:48.049Z,24.70
2018-06-28T17:17:17.815Z,24.60
2018-06-28T17:19:46.695Z,24.50
2018-06-28T17:22:15.787Z,24.50
2018-06-28T17:24:45.624Z,24.40
2018-06-28T17:27:14.486Z,24.30
2018-06-28T17:29:43.388Z,24.30
2018-06-28T17:32:12.309Z,24.20
2018-06-28T17:34:41.419Z,24.10
2018-06-28T17:37:10.302Z,24.00
2018-06-28T17:39:39.152Z,23.90
2018-06-28T17:42:07.978Z,23.90
2018-06-28T17:44:36.815Z,23.90
2018-06-28T17:47:06.017Z,23.80
2018-06-28T17:49:35.071Z,23.80
2018-06-28T17:52:03.718Z,23.80
2018-06-28T17:54:32.314Z,23.70
2018-06-28T17:57:01.624Z,23.60
2018-06-28T17:59:30.249Z,23.50
2018-06-28T18:01:59.769Z,23.50
2018-06-28T18:04:28.699Z,23.40
2018-06-28T18:06:57.577Z,23.40
2018-06-28T18:09:26.632Z,23.30
2018-06-28T18:11:55.454Z,23.20
2018-06-28T18:14:24.354Z,23.10
2018-06-28T18:16:53.269Z,23.10
2018-06-28T18:19:22.233Z,23.00
2018-06-28T18:21:51.135Z,23.00
2018-06-28T18:24:19.935Z,22.80
2018-06-28T18:26:48.531Z,22.80
2018-06-28T18:29:17.099Z,22.80
2018-06-28T18:31:45.628Z,22.70
2018-06-28T18:34:14.184Z,22.70
2018-06-28T18:36:42.921Z,22.60
2018-06-28T18:39:11.810Z,22.40
2018-06-28T18:41:40.702Z,22.40
2018-06-28T18:44:09.702Z,22.30
2018-06-28T18:46:38.517Z,22.30
2018-06-28T18:49:07.416Z,22.20
2018-06-28T18:51:36.290Z,22.30
2018-06-28T18:54:05.223Z,22.20
2018-06-28T18:56:34.538Z,22.20
2018-06-28T18:59:03.463Z,22.20
2018-06-28T19:04:02.048Z,22.10
2018-06-28T19:06:30.762Z,22.00
2018-06-28T19:08:59.391Z,21.90
2018-06-28T19:11:28.404Z,21.90
2018-06-28T19:14:02.710Z,21.80
2018-06-28T19:16:39.173Z,21.80
2018-06-28T19:19:07.921Z,21.80
2018-06-28T19:21:42.181Z,21.80
2018-06-28T19:24:11.758Z,21.80
2018-06-28T19:26:40.476Z,21.70
2018-06-28T19:29:16.152Z,21.70
2018-06-28T19:31:50.594Z,21.60
2018-06-28T19:34:19.356Z,21.60
2018-06-28T19:36:48.136Z,21.60
2018-06-28T19:39:22.624Z,21.50
2018-06-28T19:41:57.114Z,21.50
2018-06-28T19:44:26.119Z,21.50
2018-06-28T19:46:55.191Z,21.40
2018-06-28T19:52:03.777Z,21.40
2018-06-28T19:54:33.756Z,21.40
2018-06-28T19:57:02.816Z,21.30
2018-06-28T19:59:36.326Z,21.30
2018-06-28T20:02:10.954Z,21.30
2018-06-28T20:04:45.360Z,21.30
2018-06-28T20:07:14.701Z,21.30
2018-06-28T20:09:43.731Z,21.30
2018-06-28T20:12:17.966Z,21.40
2018-06-28T20:14:52.027Z,21.30
2018-06-28T20:17:26.859Z,21.20
2018-06-28T20:20:02.776Z,21.00
2018-06-28T20:22:31.726Z,20.90
2018-06-28T20:25:01.336Z,20.80
2018-06-28T20:27:35.629Z,20.80
2018-06-28T20:30:11.148Z,20.70
2018-06-28T20:32:45.342Z,20.70
2018-06-28T20:35:14.669Z,20.60
2018-06-28T20:37:43.754Z,20.40
2018-06-28T20:40:13.002Z,20.30
2018-06-28T20:42:44.314Z,20.30
2018-06-28T20:45:13.528Z,20.20
2018-06-28T20:47:42.239Z,20.20
2018-06-28T20:50:10.917Z,20.30
2018-06-28T20:52:39.545Z,20.30
2018-06-28T20:55:08.184Z,20.30
2018-06-28T20:57:37.856Z,20.20
2018-06-28T21:00:08.444Z,20.20
2018-06-28T21:02:37.297Z,20.20
2018-06-28T21:05:05.979Z,20.20
2018-06-28T21:07:34.704Z,20.20
2018-06-28T21:10:04.569Z,20.20
2018-06-28T21:12:34.087Z,20.30
2018-06-28T21:15:03.102Z,20.30
2018-06-28T21:17:32.449Z,20.40
2018-06-28T21:20:01.232Z,20.30
2018-06-28T21:22:29.874Z,20.40
2018-06-28T21:24:58.494Z,20.20
2018-06-28T21:27:28.688Z,20.30
2018-06-28T21:29:59.011Z,20.30
2018-06-28T21:32:27.716Z,20.40
2018-06-28T21:34:56.451Z,20.40
2018-06-28T21:37:25.287Z,20.40
2018-06-28T21:39:54.547Z,20.30
2018-06-28T21:42:23.445Z,20.10
2018-06-28T21:44:52.446Z,20.00
2018-06-28T21:47:21.386Z,19.80
2018-06-28T21:49:50.339Z,19.70
2018-06-28T21:52:19.317Z,19.70
2018-06-28T21:54:48.252Z,19.60
2018-06-28T21:57:17.430Z,19.60
2018-06-28T21:59:46.436Z,19.50
2018-06-28T22:02:15.389Z,19.40
2018-06-28T22:04:44.354Z,19.70
2018-06-28T22:07:13.316Z,19.70
2018-06-28T22:09:42.434Z,19.60
2018-06-28T22:12:11.359Z,19.50
2018-06-28T22:14:40.291Z,19.40
2018-06-28T22:17:09.266Z,19.20
2018-06-28T22:19:38.298Z,19.20
2018-06-28T22:22:07.366Z,19.10
2018-06-28T22:24:36.296Z,19.10
2018-06-28T22:27:05.294Z,19.10
2018-06-28T22:29:35.215Z,19.30
2018-06-28T22:32:04.159Z,19.20
2018-06-28T22:34:33.056Z,19.40
2018-06-28T22:37:01.775Z,19.40
2018-06-28T22:39:30.336Z,19.40
2018-06-28T22:41:58.965Z,19.30
2018-06-28T22:44:27.536Z,19.20
2018-06-28T22:46:56.315Z,19.10
2018-06-28T22:49:25.805Z,19.00
2018-06-28T22:51:54.726Z,18.90
2018-06-28T22:54:23.588Z,18.70
2018-06-28T22:56:52.595Z,18.50
2018-06-28T22:59:21.169Z,18.30
2018-06-28T23:01:49.727Z,18.10
2018-06-28T23:04:18.258Z,18.00
2018-06-28T23:06:46.784Z,17.90
2018-06-28T23:09:15.336Z,17.80
2018-06-28T23:11:43.896Z,17.70
2018-06-28T23:14:12.444Z,17.60
2018-06-28T23:16:40.987Z,17.70
2018-06-28T23:19:09.602Z,18.00
2018-06-28T23:21:38.193Z,18.10
2018-06-28T23:24:06.816Z,18.10
2018-06-28T23:26:35.373Z,18.10
2018-06-28T23:29:04.046Z,18.10
2018-06-28T23:31:32.599Z,18.00
2018-06-28T23:34:01.727Z,17.90
2018-06-28T23:36:30.305Z,17.70
2018-06-28T23:38:58.854Z,17.40
2018-06-28T23:41:27.414Z,17.20
2018-06-28T23:43:55.969Z,17.10
2018-06-28T23:46:24.724Z,17.00
2018-06-28T23:51:22.194Z,16.80
2018-06-28T23:53:51.111Z,16.70
2018-06-28T23:56:19.766Z,16.70
2018-06-28T23:58:48.344Z,16.60
